sensor_id;sensor_type;location;lat;lon;timestamp;P1;durP1;ratioP1;P2;durP2;ratioP2
82869;SDS011;72645;47.136;15.420;2024-01-10T00:02:43;8.10;;;4.40;;
82869;SDS011;72645;47.136;15.420;2024-01-10T00:05:14;10.90;;;4.50;;
82869;SDS011;72645;47.136;15.420;2024-01-10T00:07:47;7.10;;;3.50;;
82869;SDS011;72645;47.136;15.420;2024-01-10T00:10:18;10.60;;;4.60;;
82869;SDS011;72645;47.136;15.420;2024-01-10T00:12:50;7.30;;;3.50;;
82869;SDS011;72645;47.136;15.420;2024-01-10T00:15:21;7.70;;;3.50;;
82869;SDS011;72645;47.136;15.420;2024-01-10T00:17:52;9.30;;;4.10;;
82869;SDS011;72645;47.136;15.420;2024-01-10T00:20:24;6.70;;;3.50;;
82869;SDS011;72645;47.136;15.420;2024-01-10T00:22:55;9.50;;;4.60;;
82869;SDS011;72645;47.136;15.420;2024-01-10T00:25:26;8.10;;;3.30;;
82869;SDS011;72645;47.136;15.420;2024-01-10T00:27:57;5.90;;;3.70;;
82869;SDS011;72645;47.136;15.420;2024-01-10T00:32:57;7.30;;;3.60;;
82869;SDS011;72645;47.136;15.420;2024-01-10T00:35:28;9.40;;;4.20;;
82869;SDS011;72645;47.136;15.420;2024-01-10T00:38:00;9.10;;;3.90;;
82869;SDS011;72645;47.136;15.420;2024-01-10T00:40:31;7.70;;;3.40;;
82869;SDS011;72645;47.136;15.420;2024-01-10T00:43:02;10.00;;;3.80;;
82869;SDS011;72645;47.136;15.420;2024-01-10T00:45:33;10.30;;;3.90;;
82869;SDS011;72645;47.136;15.420;2024-01-10T00:48:04;9.40;;;4.70;;
82869;SDS011;72645;47.136;15.420;2024-01-10T00:50:36;13.60;;;4.40;;
82869;SDS011;72645;47.136;15.420;2024-01-10T00:53:07;8.60;;;3.60;;
82869;SDS011;72645;47.136;15.420;2024-01-10T00:55:38;7.90;;;3.60;;
82869;SDS011;72645;47.136;15.420;2024-01-10T00:58:09;10.40;;;4.10;;
82869;SDS011;72645;47.136;15.420;2024-01-10T01:00:40;10.80;;;4.00;;
82869;SDS011;72645;47.136;15.420;2024-01-10T01:03:11;9.40;;;4.00;;
82869;SDS011;72645;47.136;15.420;2024-01-10T01:05:42;7.70;;;3.40;;
82869;SDS011;72645;47.136;15.420;2024-01-10T01:08:13;6.50;;;3.60;;
82869;SDS011;72645;47.136;15.420;2024-01-10T01:10:44;8.70;;;4.00;;
82869;SDS011;72645;47.136;15.420;2024-01-10T01:13:15;8.70;;;3.40;;
82869;SDS011;72645;47.136;15.420;2024-01-10T01:18:15;9.50;;;3.60;;
82869;SDS011;72645;47.136;15.420;2024-01-10T01:20:47;8.20;;;4.20;;
82869;SDS011;72645;47.136;15.420;2024-01-10T01:23:18;8.70;;;4.70;;
82869;SDS011;72645;47.136;15.420;2024-01-10T01:26:05;10.10;;;4.10;;
82869;SDS011;72645;47.136;15.420;2024-01-10T01:28:37;8.60;;;4.10;;
82869;SDS011;72645;47.136;15.420;2024-01-10T01:31:08;9.40;;;4.60;;
82869;SDS011;72645;47.136;15.420;2024-01-10T01:33:39;7.40;;;3.70;;
82869;SDS011;72645;47.136;15.420;2024-01-10T01:36:10;8.80;;;4.00;;
82869;SDS011;72645;47.136;15.420;2024-01-10T01:38:41;8.40;;;3.40;;
82869;SDS011;72645;47.136;15.420;2024-01-10T01:43:43;8.00;;;3.40;;
82869;SDS011;72645;47.136;15.420;2024-01-10T01:46:15;9.00;;;3.60;;
82869;SDS011;72645;47.136;15.420;2024-01-10T01:48:46;8.20;;;4.60;;
82869;SDS011;72645;47.136;15.420;2024-01-10T01:51:18;8.90;;;4.30;;
82869;SDS011;72645;47.136;15.420;2024-01-10T01:53:51;9.90;;;4.20;;
82869;SDS011;72645;47.136;15.420;2024-01-10T01:56:23;7.30;;;3.90;;
82869;SDS011;72645;47.136;15.420;2024-01-10T01:58:55;8.00;;;3.70;;
82869;SDS011;72645;47.136;15.420;2024-01-10T02:01:26;11.20;;;5.10;;
82869;SDS011;72645;47.136;15.420;2024-01-10T02:03:57;12.70;;;5.00;;
82869;SDS011;72645;47.136;15.420;2024-01-10T02:06:31;14.20;;;5.80;;
82869;SDS011;72645;47.136;15.420;2024-01-10T02:09:02;12.10;;;5.70;;
82869;SDS011;72645;47.136;15.420;2024-01-10T02:11:33;14.70;;;6.00;;
82869;SDS011;72645;47.136;15.420;2024-01-10T02:14:04;15.60;;;6.50;;
82869;SDS011;72645;47.136;15.420;2024-01-10T02:16:36;10.60;;;5.00;;
82869;SDS011;72645;47.136;15.420;2024-01-10T02:19:18;7.50;;;4.20;;
82869;SDS011;72645;47.136;15.420;2024-01-10T02:21:51;9.20;;;3.80;;
82869;SDS011;72645;47.136;15.420;2024-01-10T02:24:22;7.10;;;3.80;;
82869;SDS011;72645;47.136;15.420;2024-01-10T02:26:53;10.70;;;4.80;;
82869;SDS011;72645;47.136;15.420;2024-01-10T02:29:24;8.60;;;4.00;;
82869;SDS011;72645;47.136;15.420;2024-01-10T02:31:55;9.70;;;4.30;;
82869;SDS011;72645;47.136;15.420;2024-01-10T02:34:26;11.10;;;5.90;;
82869;SDS011;72645;47.136;15.420;2024-01-10T02:36:58;8.00;;;4.30;;
82869;SDS011;72645;47.136;15.420;2024-01-10T02:39:29;10.00;;;4.70;;
82869;SDS011;72645;47.136;15.420;2024-01-10T02:42:00;9.00;;;4.30;;
82869;SDS011;72645;47.136;15.420;2024-01-10T02:44:31;16.30;;;4.60;;
82869;SDS011;72645;47.136;15.420;2024-01-10T02:49:31;13.40;;;5.90;;
82869;SDS011;72645;47.136;15.420;2024-01-10T02:52:03;10.90;;;6.00;;
82869;SDS011;72645;47.136;15.420;2024-01-10T02:54:34;7.80;;;5.20;;
82869;SDS011;72645;47.136;15.420;2024-01-10T02:57:05;10.30;;;4.70;;
82869;SDS011;72645;47.136;15.420;2024-01-10T02:59:36;7.10;;;4.30;;
82869;SDS011;72645;47.136;15.420;2024-01-10T03:02:07;11.40;;;5.30;;
82869;SDS011;72645;47.136;15.420;2024-01-10T03:04:38;10.70;;;4.80;;
82869;SDS011;72645;47.136;15.420;2024-01-10T03:07:09;10.30;;;4.60;;
82869;SDS011;72645;47.136;15.420;2024-01-10T03:09:40;10.30;;;5.30;;
82869;SDS011;72645;47.136;15.420;2024-01-10T03:12:12;10.40;;;5.10;;
82869;SDS011;72645;47.136;15.420;2024-01-10T03:14:43;9.60;;;5.80;;
82869;SDS011;72645;47.136;15.420;2024-01-10T03:19:43;7.00;;;3.00;;
82869;SDS011;72645;47.136;15.420;2024-01-10T03:22:14;9.20;;;3.90;;
82869;SDS011;72645;47.136;15.420;2024-01-10T03:24:45;7.30;;;3.60;;
82869;SDS011;72645;47.136;15.420;2024-01-10T03:29:45;8.20;;;3.70;;
82869;SDS011;72645;47.136;15.420;2024-01-10T03:34:46;6.80;;;3.00;;
82869;SDS011;72645;47.136;15.420;2024-01-10T03:37:19;9.00;;;4.30;;
82869;SDS011;72645;47.136;15.420;2024-01-10T03:42:19;7.70;;;3.10;;
82869;SDS011;72645;47.136;15.420;2024-01-10T03:44:50;8.50;;;3.90;;
82869;SDS011;72645;47.136;15.420;2024-01-10T03:47:21;9.30;;;4.20;;
82869;SDS011;72645;47.136;15.420;2024-01-10T03:49:53;8.30;;;4.00;;
82869;SDS011;72645;47.136;15.420;2024-01-10T03:52:24;8.30;;;3.50;;
82869;SDS011;72645;47.136;15.420;2024-01-10T03:54:55;7.60;;;2.80;;
82869;SDS011;72645;47.136;15.420;2024-01-10T03:59:55;8.80;;;3.50;;
82869;SDS011;72645;47.136;15.420;2024-01-10T04:02:26;8.10;;;3.30;;
82869;SDS011;72645;47.136;15.420;2024-01-10T04:04:57;6.10;;;3.00;;
82869;SDS011;72645;47.136;15.420;2024-01-10T04:07:28;6.50;;;3.50;;
82869;SDS011;72645;47.136;15.420;2024-01-10T04:12:29;9.60;;;3.10;;
82869;SDS011;72645;47.136;15.420;2024-01-10T04:17:29;5.80;;;3.20;;
82869;SDS011;72645;47.136;15.420;2024-01-10T04:20:01;8.30;;;4.10;;
82869;SDS011;72645;47.136;15.420;2024-01-10T04:22:33;7.10;;;3.50;;
82869;SDS011;72645;47.136;15.420;2024-01-10T04:27:34;8.40;;;4.60;;
82869;SDS011;72645;47.136;15.420;2024-01-10T04:32:36;5.10;;;2.90;;
82869;SDS011;72645;47.136;15.420;2024-01-10T04:35:07;7.00;;;3.50;;
82869;SDS011;72645;47.136;15.420;2024-01-10T04:37:39;9.50;;;3.80;;
82869;SDS011;72645;47.136;15.420;2024-01-10T04:40:10;10.00;;;4.40;;
82869;SDS011;72645;47.136;15.420;2024-01-10T04:42:41;6.10;;;3.30;;
82869;SDS011;72645;47.136;15.420;2024-01-10T04:45:12;6.00;;;2.90;;
82869;SDS011;72645;47.136;15.420;2024-01-10T04:50:14;10.60;;;5.10;;
82869;SDS011;72645;47.136;15.420;2024-01-10T04:52:45;6.20;;;3.40;;
82869;SDS011;72645;47.136;15.420;2024-01-10T04:57:45;8.30;;;4.00;;
82869;SDS011;72645;47.136;15.420;2024-01-10T05:02:46;6.30;;;3.10;;
82869;SDS011;72645;47.136;15.420;2024-01-10T05:05:20;6.40;;;3.20;;
82869;SDS011;72645;47.136;15.420;2024-01-10T05:07:52;9.10;;;3.60;;
82869;SDS011;72645;47.136;15.420;2024-01-10T05:10:23;7.10;;;3.80;;
82869;SDS011;72645;47.136;15.420;2024-01-10T05:12:54;9.30;;;4.40;;
82869;SDS011;72645;47.136;15.420;2024-01-10T05:15:25;12.30;;;4.80;;
82869;SDS011;72645;47.136;15.420;2024-01-10T05:17:56;8.50;;;3.50;;
82869;SDS011;72645;47.136;15.420;2024-01-10T05:20:28;6.60;;;4.00;;
82869;SDS011;72645;47.136;15.420;2024-01-10T05:23:00;6.80;;;3.20;;
82869;SDS011;72645;47.136;15.420;2024-01-10T05:28:00;7.00;;;3.20;;
82869;SDS011;72645;47.136;15.420;2024-01-10T05:33:00;8.30;;;3.50;;
82869;SDS011;72645;47.136;15.420;2024-01-10T05:35:32;8.00;;;3.90;;
82869;SDS011;72645;47.136;15.420;2024-01-10T05:38:03;7.00;;;3.80;;
82869;SDS011;72645;47.136;15.420;2024-01-10T05:40:35;10.20;;;3.80;;
82869;SDS011;72645;47.136;15.420;2024-01-10T05:45:38;7.50;;;2.90;;
82869;SDS011;72645;47.136;15.420;2024-01-10T05:48:09;8.90;;;3.10;;
82869;SDS011;72645;47.136;15.420;2024-01-10T05:50:40;7.70;;;3.40;;
82869;SDS011;72645;47.136;15.420;2024-01-10T05:55:44;6.60;;;2.60;;
82869;SDS011;72645;47.136;15.420;2024-01-10T05:58:16;7.90;;;4.30;;
82869;SDS011;72645;47.136;15.420;2024-01-10T06:03:16;8.80;;;3.00;;
82869;SDS011;72645;47.136;15.420;2024-01-10T06:08:16;6.00;;;3.30;;
82869;SDS011;72645;47.136;15.420;2024-01-10T06:10:48;9.80;;;3.70;;
82869;SDS011;72645;47.136;15.420;2024-01-10T06:13:19;8.20;;;3.60;;
82869;SDS011;72645;47.136;15.420;2024-01-10T06:15:50;7.80;;;4.10;;
82869;SDS011;72645;47.136;15.420;2024-01-10T06:18:21;8.50;;;3.70;;
82869;SDS011;72645;47.136;15.420;2024-01-10T06:20:52;12.10;;;4.70;;
82869;SDS011;72645;47.136;15.420;2024-01-10T06:23:23;10.70;;;4.40;;
82869;SDS011;72645;47.136;15.420;2024-01-10T06:25:54;7.40;;;3.80;;
82869;SDS011;72645;47.136;15.420;2024-01-10T06:28:25;7.40;;;4.00;;
82869;SDS011;72645;47.136;15.420;2024-01-10T06:30:56;9.10;;;3.90;;
82869;SDS011;72645;47.136;15.420;2024-01-10T06:33:27;10.90;;;4.70;;
82869;SDS011;72645;47.136;15.420;2024-01-10T06:38:27;14.40;;;4.30;;
82869;SDS011;72645;47.136;15.420;2024-01-10T06:40:58;9.90;;;3.80;;
82869;SDS011;72645;47.136;15.420;2024-01-10T06:45:59;4.80;;;3.10;;
82869;SDS011;72645;47.136;15.420;2024-01-10T06:48:31;9.40;;;5.30;;
82869;SDS011;72645;47.136;15.420;2024-01-10T06:51:02;11.80;;;5.60;;
82869;SDS011;72645;47.136;15.420;2024-01-10T06:53:38;19.60;;;7.20;;
82869;SDS011;72645;47.136;15.420;2024-01-10T06:56:09;15.90;;;6.20;;
82869;SDS011;72645;47.136;15.420;2024-01-10T07:01:12;10.40;;;5.40;;
82869;SDS011;72645;47.136;15.420;2024-01-10T07:03:44;7.70;;;4.80;;
82869;SDS011;72645;47.136;15.420;2024-01-10T07:06:15;9.70;;;4.90;;
82869;SDS011;72645;47.136;15.420;2024-01-10T07:11:17;10.00;;;5.40;;
82869;SDS011;72645;47.136;15.420;2024-01-10T07:13:48;8.40;;;4.10;;
82869;SDS011;72645;47.136;15.420;2024-01-10T07:16:22;9.40;;;5.10;;
82869;SDS011;72645;47.136;15.420;2024-01-10T07:18:53;13.90;;;4.70;;
82869;SDS011;72645;47.136;15.420;2024-01-10T07:21:24;12.00;;;5.10;;
82869;SDS011;72645;47.136;15.420;2024-01-10T07:23:55;9.40;;;5.60;;
82869;SDS011;72645;47.136;15.420;2024-01-10T07:26:27;12.60;;;4.40;;
82869;SDS011;72645;47.136;15.420;2024-01-10T07:31:30;8.60;;;3.70;;
82869;SDS011;72645;47.136;15.420;2024-01-10T07:34:01;8.40;;;3.50;;
82869;SDS011;72645;47.136;15.420;2024-01-10T07:36:33;18.90;;;7.50;;
82869;SDS011;72645;47.136;15.420;2024-01-10T07:39:12;26.90;;;12.10;;
82869;SDS011;72645;47.136;15.420;2024-01-10T07:41:46;14.60;;;7.60;;
82869;SDS011;72645;47.136;15.420;2024-01-10T07:44:18;11.20;;;4.80;;
82869;SDS011;72645;47.136;15.420;2024-01-10T07:46:49;11.80;;;6.30;;
82869;SDS011;72645;47.136;15.420;2024-01-10T07:49:21;10.50;;;4.80;;
82869;SDS011;72645;47.136;15.420;2024-01-10T07:51:52;12.00;;;5.10;;
82869;SDS011;72645;47.136;15.420;2024-01-10T07:56:53;10.10;;;4.90;;
82869;SDS011;72645;47.136;15.420;2024-01-10T08:04:26;9.00;;;4.30;;
82869;SDS011;72645;47.136;15.420;2024-01-10T08:06:57;11.50;;;4.90;;
82869;SDS011;72645;47.136;15.420;2024-01-10T08:09:29;12.00;;;5.10;;
82869;SDS011;72645;47.136;15.420;2024-01-10T08:14:29;10.50;;;4.40;;
82869;SDS011;72645;47.136;15.420;2024-01-10T08:17:00;10.50;;;5.80;;
82869;SDS011;72645;47.136;15.420;2024-01-10T08:19:34;12.80;;;6.10;;
82869;SDS011;72645;47.136;15.420;2024-01-10T08:22:05;11.40;;;6.40;;
82869;SDS011;72645;47.136;15.420;2024-01-10T08:24:37;8.90;;;4.50;;
82869;SDS011;72645;47.136;15.420;2024-01-10T08:27:08;9.40;;;5.00;;
82869;SDS011;72645;47.136;15.420;2024-01-10T08:29:39;13.30;;;4.90;;
82869;SDS011;72645;47.136;15.420;2024-01-10T08:32:10;11.30;;;4.90;;
82869;SDS011;72645;47.136;15.420;2024-01-10T08:34:41;11.00;;;5.10;;
82869;SDS011;72645;47.136;15.420;2024-01-10T08:37:13;10.40;;;4.90;;
82869;SDS011;72645;47.136;15.420;2024-01-10T08:39:45;12.70;;;5.30;;
82869;SDS011;72645;47.136;15.420;2024-01-10T08:42:16;10.80;;;5.00;;
82869;SDS011;72645;47.136;15.420;2024-01-10T08:44:47;11.20;;;5.40;;
82869;SDS011;72645;47.136;15.420;2024-01-10T08:47:18;11.70;;;5.60;;
82869;SDS011;72645;47.136;15.420;2024-01-10T08:49:49;10.40;;;5.80;;
82869;SDS011;72645;47.136;15.420;2024-01-10T08:52:20;11.20;;;5.20;;
82869;SDS011;72645;47.136;15.420;2024-01-10T08:54:51;9.70;;;5.40;;
82869;SDS011;72645;47.136;15.420;2024-01-10T08:57:24;10.60;;;5.40;;
82869;SDS011;72645;47.136;15.420;2024-01-10T08:59:55;10.60;;;5.80;;
82869;SDS011;72645;47.136;15.420;2024-01-10T09:02:28;10.80;;;5.10;;
82869;SDS011;72645;47.136;15.420;2024-01-10T09:05:01;12.40;;;5.70;;
82869;SDS011;72645;47.136;15.420;2024-01-10T09:07:35;13.10;;;5.50;;
82869;SDS011;72645;47.136;15.420;2024-01-10T09:10:07;13.90;;;6.00;;
82869;SDS011;72645;47.136;15.420;2024-01-10T09:12:38;12.20;;;6.30;;
82869;SDS011;72645;47.136;15.420;2024-01-10T09:15:14;11.10;;;6.90;;
82869;SDS011;72645;47.136;15.420;2024-01-10T09:17:45;16.30;;;6.20;;
82869;SDS011;72645;47.136;15.420;2024-01-10T09:20:17;13.00;;;6.30;;
82869;SDS011;72645;47.136;15.420;2024-01-10T09:22:48;13.60;;;6.70;;
82869;SDS011;72645;47.136;15.420;2024-01-10T09:25:22;10.90;;;5.50;;
82869;SDS011;72645;47.136;15.420;2024-01-10T09:27:53;12.00;;;7.30;;
82869;SDS011;72645;47.136;15.420;2024-01-10T09:30:25;13.80;;;5.90;;
82869;SDS011;72645;47.136;15.420;2024-01-10T09:32:56;13.60;;;6.20;;
82869;SDS011;72645;47.136;15.420;2024-01-10T09:35:28;10.80;;;6.00;;
82869;SDS011;72645;47.136;15.420;2024-01-10T09:37:59;13.60;;;5.80;;
82869;SDS011;72645;47.136;15.420;2024-01-10T09:40:32;9.70;;;5.90;;
82869;SDS011;72645;47.136;15.420;2024-01-10T09:43:03;11.50;;;5.60;;
82869;SDS011;72645;47.136;15.420;2024-01-10T09:45:36;10.70;;;5.70;;
82869;SDS011;72645;47.136;15.420;2024-01-10T09:48:14;13.20;;;6.60;;
82869;SDS011;72645;47.136;15.420;2024-01-10T09:50:46;14.20;;;6.50;;
82869;SDS011;72645;47.136;15.420;2024-01-10T09:53:21;13.30;;;6.00;;
82869;SDS011;72645;47.136;15.420;2024-01-10T09:55:54;9.70;;;5.50;;
82869;SDS011;72645;47.136;15.420;2024-01-10T09:58:28;12.70;;;6.00;;
82869;SDS011;72645;47.136;15.420;2024-01-10T10:01:01;13.90;;;5.80;;
82869;SDS011;72645;47.136;15.420;2024-01-10T10:03:33;12.40;;;6.60;;
82869;SDS011;72645;47.136;15.420;2024-01-10T10:06:10;10.30;;;6.40;;
82869;SDS011;72645;47.136;15.420;2024-01-10T10:08:43;15.40;;;6.60;;
82869;SDS011;72645;47.136;15.420;2024-01-10T10:11:14;13.70;;;6.10;;
82869;SDS011;72645;47.136;15.420;2024-01-10T10:13:45;12.00;;;6.20;;
82869;SDS011;72645;47.136;15.420;2024-01-10T10:16:22;16.90;;;6.00;;
82869;SDS011;72645;47.136;15.420;2024-01-10T10:18:54;11.50;;;6.70;;
82869;SDS011;72645;47.136;15.420;2024-01-10T10:21:26;11.90;;;5.30;;
82869;SDS011;72645;47.136;15.420;2024-01-10T10:23:59;12.50;;;6.00;;
82869;SDS011;72645;47.136;15.420;2024-01-10T10:26:33;12.50;;;6.40;;
82869;SDS011;72645;47.136;15.420;2024-01-10T10:29:04;11.40;;;5.40;;
82869;SDS011;72645;47.136;15.420;2024-01-10T10:31:35;10.90;;;5.00;;
82869;SDS011;72645;47.136;15.420;2024-01-10T10:34:06;11.50;;;6.20;;
82869;SDS011;72645;47.136;15.420;2024-01-10T10:36:39;10.60;;;5.40;;
82869;SDS011;72645;47.136;15.420;2024-01-10T10:39:17;12.40;;;5.60;;
82869;SDS011;72645;47.136;15.420;2024-01-10T10:41:48;12.40;;;5.60;;
82869;SDS011;72645;47.136;15.420;2024-01-10T10:44:23;13.40;;;6.70;;
82869;SDS011;72645;47.136;15.420;2024-01-10T10:46:58;13.10;;;6.00;;
82869;SDS011;72645;47.136;15.420;2024-01-10T10:49:41;10.80;;;5.20;;
82869;SDS011;72645;47.136;15.420;2024-01-10T10:52:23;9.90;;;4.80;;
82869;SDS011;72645;47.136;15.420;2024-01-10T10:54:55;14.30;;;5.50;;
82869;SDS011;72645;47.136;15.420;2024-01-10T10:57:27;10.50;;;5.30;;
82869;SDS011;72645;47.136;15.420;2024-01-10T11:00:00;11.20;;;5.20;;
82869;SDS011;72645;47.136;15.420;2024-01-10T11:02:35;9.20;;;5.60;;
82869;SDS011;72645;47.136;15.420;2024-01-10T11:05:07;10.80;;;5.10;;
82869;SDS011;72645;47.136;15.420;2024-01-10T11:07:39;9.70;;;4.60;;
82869;SDS011;72645;47.136;15.420;2024-01-10T11:10:13;9.40;;;5.60;;
82869;SDS011;72645;47.136;15.420;2024-01-10T11:12:59;11.50;;;5.20;;
82869;SDS011;72645;47.136;15.420;2024-01-10T11:16:02;10.60;;;5.20;;
82869;SDS011;72645;47.136;15.420;2024-01-10T11:22:00;14.80;;;5.10;;
82869;SDS011;72645;47.136;15.420;2024-01-10T11:24:39;16.10;;;5.40;;
82869;SDS011;72645;47.136;15.420;2024-01-10T11:27:12;11.00;;;5.80;;
82869;SDS011;72645;47.136;15.420;2024-01-10T11:29:45;13.80;;;6.30;;
82869;SDS011;72645;47.136;15.420;2024-01-10T11:32:18;13.10;;;5.80;;
82869;SDS011;72645;47.136;15.420;2024-01-10T11:34:56;10.60;;;5.80;;
82869;SDS011;72645;47.136;15.420;2024-01-10T11:37:41;11.10;;;5.60;;
82869;SDS011;72645;47.136;15.420;2024-01-10T11:40:14;10.40;;;5.10;;
82869;SDS011;72645;47.136;15.420;2024-01-10T11:42:53;11.60;;;6.00;;
82869;SDS011;72645;47.136;15.420;2024-01-10T11:45:38;11.50;;;6.40;;
82869;SDS011;72645;47.136;15.420;2024-01-10T11:48:26;11.50;;;6.00;;
82869;SDS011;72645;47.136;15.420;2024-01-10T11:50:58;9.80;;;5.40;;
82869;SDS011;72645;47.136;15.420;2024-01-10T11:53:42;12.00;;;5.30;;
82869;SDS011;72645;47.136;15.420;2024-01-10T11:56:16;12.20;;;6.00;;
82869;SDS011;72645;47.136;15.420;2024-01-10T11:59:03;11.90;;;5.80;;
82869;SDS011;72645;47.136;15.420;2024-01-10T12:01:38;10.30;;;6.10;;
82869;SDS011;72645;47.136;15.420;2024-01-10T12:04:10;11.90;;;6.50;;
82869;SDS011;72645;47.136;15.420;2024-01-10T12:06:53;12.20;;;5.90;;
82869;SDS011;72645;47.136;15.420;2024-01-10T12:09:25;12.90;;;6.30;;
82869;SDS011;72645;47.136;15.420;2024-01-10T12:11:59;15.80;;;6.20;;
82869;SDS011;72645;47.136;15.420;2024-01-10T12:14:30;12.20;;;7.10;;
82869;SDS011;72645;47.136;15.420;2024-01-10T12:17:02;14.20;;;6.10;;
82869;SDS011;72645;47.136;15.420;2024-01-10T12:19:35;17.20;;;7.80;;
82869;SDS011;72645;47.136;15.420;2024-01-10T12:22:07;15.10;;;7.10;;
82869;SDS011;72645;47.136;15.420;2024-01-10T12:24:42;12.30;;;6.50;;
82869;SDS011;72645;47.136;15.420;2024-01-10T12:27:15;17.00;;;8.80;;
82869;SDS011;72645;47.136;15.420;2024-01-10T12:29:50;22.40;;;7.60;;
82869;SDS011;72645;47.136;15.420;2024-01-10T12:32:22;14.10;;;6.20;;
82869;SDS011;72645;47.136;15.420;2024-01-10T12:34:59;15.00;;;6.90;;
82869;SDS011;72645;47.136;15.420;2024-01-10T12:37:31;11.60;;;5.80;;
82869;SDS011;72645;47.136;15.420;2024-01-10T12:40:03;10.20;;;5.10;;
82869;SDS011;72645;47.136;15.420;2024-01-10T12:42:38;12.20;;;4.10;;
82869;SDS011;72645;47.136;15.420;2024-01-10T12:45:21;7.60;;;3.40;;
82869;SDS011;72645;47.136;15.420;2024-01-10T12:47:54;5.40;;;3.20;;
82869;SDS011;72645;47.136;15.420;2024-01-10T12:50:26;5.80;;;2.90;;
82869;SDS011;72645;47.136;15.420;2024-01-10T12:52:57;6.90;;;3.30;;
82869;SDS011;72645;47.136;15.420;2024-01-10T12:55:28;6.50;;;3.80;;
82869;SDS011;72645;47.136;15.420;2024-01-10T12:57:59;6.70;;;3.90;;
82869;SDS011;72645;47.136;15.420;2024-01-10T13:00:35;6.30;;;3.30;;
82869;SDS011;72645;47.136;15.420;2024-01-10T13:03:07;8.10;;;3.90;;
82869;SDS011;72645;47.136;15.420;2024-01-10T13:05:39;6.70;;;3.60;;
82869;SDS011;72645;47.136;15.420;2024-01-10T13:08:10;5.10;;;2.90;;
82869;SDS011;72645;47.136;15.420;2024-01-10T13:10:41;6.70;;;3.40;;
82869;SDS011;72645;47.136;15.420;2024-01-10T13:13:13;6.00;;;3.90;;
82869;SDS011;72645;47.136;15.420;2024-01-10T13:15:45;5.70;;;3.80;;
82869;SDS011;72645;47.136;15.420;2024-01-10T13:18:16;7.40;;;4.20;;
82869;SDS011;72645;47.136;15.420;2024-01-10T13:20:48;5.10;;;3.00;;
82869;SDS011;72645;47.136;15.420;2024-01-10T13:23:19;5.50;;;3.10;;
82869;SDS011;72645;47.136;15.420;2024-01-10T13:25:52;8.80;;;4.20;;
82869;SDS011;72645;47.136;15.420;2024-01-10T13:28:23;16.90;;;3.90;;
82869;SDS011;72645;47.136;15.420;2024-01-10T13:30:55;5.30;;;3.10;;
82869;SDS011;72645;47.136;15.420;2024-01-10T13:33:27;6.00;;;3.40;;
82869;SDS011;72645;47.136;15.420;2024-01-10T13:35:58;7.70;;;3.50;;
82869;SDS011;72645;47.136;15.420;2024-01-10T13:38:29;6.00;;;2.90;;
82869;SDS011;72645;47.136;15.420;2024-01-10T13:41:00;5.00;;;2.60;;
82869;SDS011;72645;47.136;15.420;2024-01-10T13:43:33;4.90;;;2.70;;
82869;SDS011;72645;47.136;15.420;2024-01-10T13:46:04;4.80;;;3.10;;
82869;SDS011;72645;47.136;15.420;2024-01-10T13:48:36;5.90;;;3.50;;
82869;SDS011;72645;47.136;15.420;2024-01-10T13:51:10;5.80;;;3.50;;
82869;SDS011;72645;47.136;15.420;2024-01-10T13:53:41;5.40;;;4.00;;
82869;SDS011;72645;47.136;15.420;2024-01-10T13:56:12;7.70;;;3.00;;
82869;SDS011;72645;47.136;15.420;2024-01-10T13:58:44;7.60;;;3.10;;
82869;SDS011;72645;47.136;15.420;2024-01-10T14:01:17;5.90;;;3.30;;
82869;SDS011;72645;47.136;15.420;2024-01-10T14:03:48;5.80;;;3.70;;
82869;SDS011;72645;47.136;15.420;2024-01-10T14:06:19;5.20;;;3.10;;
82869;SDS011;72645;47.136;15.420;2024-01-10T14:08:50;6.10;;;4.00;;
82869;SDS011;72645;47.136;15.420;2024-01-10T14:11:21;7.20;;;3.60;;
82869;SDS011;72645;47.136;15.420;2024-01-10T14:13:55;8.80;;;4.50;;
82869;SDS011;72645;47.136;15.420;2024-01-10T14:16:27;9.70;;;4.60;;
82869;SDS011;72645;47.136;15.420;2024-01-10T14:18:58;11.80;;;4.60;;
82869;SDS011;72645;47.136;15.420;2024-01-10T14:21:29;8.10;;;4.40;;
82869;SDS011;72645;47.136;15.420;2024-01-10T14:24:00;8.10;;;5.00;;
82869;SDS011;72645;47.136;15.420;2024-01-10T14:26:32;6.70;;;4.70;;
82869;SDS011;72645;47.136;15.420;2024-01-10T14:29:03;10.10;;;4.70;;
82869;SDS011;72645;47.136;15.420;2024-01-10T14:31:34;9.90;;;5.20;;
82869;SDS011;72645;47.136;15.420;2024-01-10T14:34:25;10.60;;;5.40;;
82869;SDS011;72645;47.136;15.420;2024-01-10T14:36:56;14.60;;;5.90;;
82869;SDS011;72645;47.136;15.420;2024-01-10T14:39:27;10.20;;;6.10;;
82869;SDS011;72645;47.136;15.420;2024-01-10T14:42:02;13.10;;;5.60;;
82869;SDS011;72645;47.136;15.420;2024-01-10T14:44:34;12.10;;;7.00;;
82869;SDS011;72645;47.136;15.420;2024-01-10T14:47:06;13.10;;;6.00;;
82869;SDS011;72645;47.136;15.420;2024-01-10T14:49:39;12.50;;;5.90;;
82869;SDS011;72645;47.136;15.420;2024-01-10T14:52:10;11.00;;;5.60;;
82869;SDS011;72645;47.136;15.420;2024-01-10T14:54:41;11.70;;;5.10;;
82869;SDS011;72645;47.136;15.420;2024-01-10T14:57:12;12.50;;;5.40;;
82869;SDS011;72645;47.136;15.420;2024-01-10T14:59:44;10.70;;;5.40;;
82869;SDS011;72645;47.136;15.420;2024-01-10T15:02:15;13.20;;;5.90;;
82869;SDS011;72645;47.136;15.420;2024-01-10T15:04:47;8.10;;;5.10;;
82869;SDS011;72645;47.136;15.420;2024-01-10T15:07:18;11.00;;;6.10;;
82869;SDS011;72645;47.136;15.420;2024-01-10T15:09:49;10.50;;;5.30;;
82869;SDS011;72645;47.136;15.420;2024-01-10T15:12:20;10.70;;;5.80;;
82869;SDS011;72645;47.136;15.420;2024-01-10T15:14:51;13.70;;;6.10;;
82869;SDS011;72645;47.136;15.420;2024-01-10T15:17:22;11.50;;;5.20;;
82869;SDS011;72645;47.136;15.420;2024-01-10T15:19:53;11.50;;;5.60;;
82869;SDS011;72645;47.136;15.420;2024-01-10T15:22:24;10.90;;;5.60;;
82869;SDS011;72645;47.136;15.420;2024-01-10T15:24:55;14.20;;;6.40;;
82869;SDS011;72645;47.136;15.420;2024-01-10T15:27:27;11.90;;;5.30;;
82869;SDS011;72645;47.136;15.420;2024-01-10T15:29:58;11.40;;;5.60;;
82869;SDS011;72645;47.136;15.420;2024-01-10T15:32:44;10.00;;;5.60;;
82869;SDS011;72645;47.136;15.420;2024-01-10T15:35:17;14.50;;;5.90;;
82869;SDS011;72645;47.136;15.420;2024-01-10T15:37:49;9.90;;;5.10;;
82869;SDS011;72645;47.136;15.420;2024-01-10T15:40:21;14.50;;;6.30;;
82869;SDS011;72645;47.136;15.420;2024-01-10T15:42:52;10.60;;;5.60;;
82869;SDS011;72645;47.136;15.420;2024-01-10T15:45:25;13.10;;;4.60;;
82869;SDS011;72645;47.136;15.420;2024-01-10T15:47:56;11.60;;;6.90;;
82869;SDS011;72645;47.136;15.420;2024-01-10T15:50:27;12.50;;;5.60;;
82869;SDS011;72645;47.136;15.420;2024-01-10T15:52:58;11.60;;;6.30;;
82869;SDS011;72645;47.136;15.420;2024-01-10T15:55:29;11.80;;;6.10;;
82869;SDS011;72645;47.136;15.420;2024-01-10T15:58:03;12.60;;;6.00;;
82869;SDS011;72645;47.136;15.420;2024-01-10T16:00:34;13.60;;;5.70;;
82869;SDS011;72645;47.136;15.420;2024-01-10T16:03:06;10.70;;;5.90;;
82869;SDS011;72645;47.136;15.420;2024-01-10T16:05:37;12.90;;;6.10;;
82869;SDS011;72645;47.136;15.420;2024-01-10T16:08:08;11.40;;;6.20;;
82869;SDS011;72645;47.136;15.420;2024-01-10T16:10:39;11.50;;;5.60;;
82869;SDS011;72645;47.136;15.420;2024-01-10T16:13:12;12.40;;;5.80;;
82869;SDS011;72645;47.136;15.420;2024-01-10T16:15:43;12.20;;;6.50;;
82869;SDS011;72645;47.136;15.420;2024-01-10T16:18:14;14.40;;;6.00;;
82869;SDS011;72645;47.136;15.420;2024-01-10T16:20:45;14.40;;;6.70;;